createdAt,value
2022-08-28T00:00:25.873Z,100878.34
2022-08-28T00:02:52.759Z,100851.19
2022-08-28T00:05:19.084Z,100859.38
2022-08-28T00:07:47.865Z,100856.41
2022-08-28T00:10:14.668Z,100871.38
2022-08-28T00:12:40.924Z,100867.97
2022-08-28T00:15:08.397Z,100862.16
2022-08-28T00:17:38.144Z,100891.38
2022-08-28T00:20:04.717Z,100894.56
2022-08-28T00:22:30.965Z,100880.34
2022-08-28T00:24:57.210Z,100883.88
2022-08-28T00:27:23.455Z,100902.31
2022-08-28T00:29:49.711Z,100917.47
2022-08-28T00:32:15.948Z,100935.47
2022-08-28T00:34:42.197Z,100960.09
2022-08-28T00:37:08.455Z,100998.38
2022-08-28T00:39:34.707Z,101013.53
2022-08-28T00:42:00.949Z,100995.19
2022-08-28T00:44:27.629Z,101007.34
2022-08-28T00:46:54.264Z,101010.28
2022-08-28T00:49:32.183Z,101004.19
2022-08-28T00:51:59.787Z,101002.84
2022-08-28T00:54:26.424Z,100995.13
2022-08-28T00:56:52.726Z,100961.69
2022-08-28T00:59:19.498Z,100970.41
2022-08-28T01:01:45.987Z,100981.19
2022-08-28T01:04:12.917Z,100985.69
2022-08-28T01:06:39.160Z,100992.00
2022-08-28T01:09:05.424Z,100988.63
2022-08-28T01:11:31.660Z,100985.69
2022-08-28T01:13:57.904Z,100979.66
2022-08-28T01:16:31.625Z,100974.66
2022-08-28T01:19:00.001Z,100972.78
2022-08-28T01:21:33.066Z,100958.81
2022-08-28T01:24:00.369Z,100949.34
2022-08-28T01:26:26.963Z,100953.56
2022-08-28T01:28:53.238Z,100951.69
2022-08-28T01:31:19.522Z,100939.81
2022-08-28T01:33:45.814Z,100943.50
2022-08-28T01:36:12.405Z,100942.94
2022-08-28T01:38:39.317Z,100936.09
2022-08-28T01:41:05.654Z,100929.75
2022-08-28T01:43:31.891Z,100927.38
2022-08-28T01:45:59.285Z,100928.47
2022-08-28T01:48:25.578Z,100922.13
2022-08-28T01:50:51.866Z,100917.69
2022-08-28T01:53:18.719Z,100913.72
2022-08-28T01:55:45.386Z,100915.00
2022-08-28T01:58:11.862Z,100902.88
2022-08-28T02:00:38.251Z,100908.66
2022-08-28T02:03:04.505Z,100896.56
2022-08-28T02:05:32.377Z,100897.59
2022-08-28T02:07:58.938Z,100894.13
2022-08-28T02:10:25.841Z,100891.16
2022-08-28T02:12:53.978Z,100885.09
2022-08-28T02:15:20.233Z,100877.88
2022-08-28T02:17:49.928Z,100879.47
2022-08-28T02:20:16.176Z,100879.47
2022-08-28T02:22:42.438Z,100875.25
2022-08-28T02:25:08.961Z,100872.63
2022-08-28T02:27:35.703Z,100865.78
2022-08-28T02:30:02.361Z,100860.19
2022-08-28T02:32:28.599Z,100861.28
2022-08-28T02:34:54.862Z,100856.22
2022-08-28T02:37:21.421Z,100857.50
2022-08-28T02:39:47.669Z,100853.00
2022-08-28T02:42:13.925Z,100852.75
2022-08-28T02:44:41.346Z,100852.75
2022-08-28T02:47:07.586Z,100850.13
2022-08-28T02:49:36.087Z,100852.47
2022-08-28T02:52:02.735Z,100852.47
2022-08-28T02:54:28.994Z,100846.69
2022-08-28T02:56:55.313Z,100844.91
2022-08-28T02:59:21.581Z,100844.31
2022-08-28T03:01:47.867Z,100848.53
2022-08-28T03:04:14.148Z,100849.31
2022-08-28T03:06:40.398Z,100849.31
2022-08-28T03:09:06.646Z,100848.53
2022-08-28T03:11:32.896Z,100849.31
2022-08-28T03:13:59.255Z,100847.47
2022-08-28T03:16:25.564Z,100845.34
2022-08-28T03:18:51.829Z,100844.47
2022-08-28T03:21:18.072Z,100829.16
2022-08-28T03:23:44.320Z,100823.59
2022-08-28T03:26:14.755Z,100829.16
2022-08-28T03:28:44.856Z,100834.00
2022-08-28T03:31:12.019Z,100830.59
2022-08-28T03:33:38.331Z,100832.50
2022-08-28T03:36:09.345Z,100833.56
2022-08-28T03:38:35.598Z,100828.88
2022-08-28T03:41:01.841Z,100835.72
2022-08-28T03:43:28.083Z,100845.56
2022-08-28T03:45:55.386Z,100847.34
2022-08-28T03:48:21.675Z,100840.22
2022-08-28T03:50:48.000Z,100838.94
2022-08-28T03:53:15.300Z,100848.47
2022-08-28T03:55:41.844Z,100833.94
2022-08-28T03:58:08.103Z,100834.16
2022-08-28T04:00:34.376Z,100830.72
2022-08-28T04:03:00.728Z,100832.31
2022-08-28T04:05:27.050Z,100832.28
2022-08-28T04:07:53.288Z,100836.41
2022-08-28T04:10:19.533Z,100829.78
2022-08-28T04:12:45.768Z,100829.50
2022-08-28T04:15:12.024Z,100838.75
2022-08-28T04:17:38.814Z,100842.22
2022-08-28T04:20:05.314Z,100851.94
2022-08-28T04:22:31.562Z,100863.03
2022-08-28T04:24:57.813Z,100881.22
2022-08-28T04:27:24.066Z,100897.34
2022-08-28T04:29:50.319Z,100898.47
2022-08-28T04:32:16.639Z,100908.72
2022-08-28T04:34:42.991Z,100909.53
2022-08-28T04:37:09.236Z,100912.44
2022-08-28T04:39:35.504Z,100911.63
2022-08-28T04:42:01.879Z,100911.38
2022-08-28T04:44:28.357Z,100908.50
2022-08-28T04:46:54.618Z,100913.25
2022-08-28T04:49:22.515Z,100904.03
2022-08-28T04:51:52.172Z,100908.50
2022-08-28T04:54:18.414Z,100910.34
2022-08-28T04:56:44.700Z,100906.94
2022-08-28T04:59:10.945Z,100906.94
2022-08-28T05:01:37.189Z,100903.75
2022-08-28T05:04:03.444Z,100907.72
2022-08-28T05:06:30.188Z,100912.78
2022-08-28T05:08:56.891Z,100909.88
2022-08-28T05:11:33.208Z,100901.66
2022-08-28T05:14:01.793Z,100900.91
2022-08-28T05:16:28.130Z,100909.28
2022-08-28T05:18:54.420Z,100899.25
2022-08-28T05:21:21.579Z,100902.06
2022-08-28T05:23:52.995Z,100889.63
2022-08-28T05:26:19.260Z,100889.28
2022-08-28T05:28:46.374Z,100884.25
2022-08-28T05:31:19.215Z,100887.66
2022-08-28T05:33:45.534Z,100882.66
2022-08-28T05:36:11.785Z,100890.56
2022-08-28T05:38:38.087Z,100889.78
2022-08-28T05:41:09.118Z,100905.81
2022-08-28T05:43:35.466Z,100902.38
2022-08-28T05:46:02.507Z,100898.97
2022-08-28T05:48:36.160Z,100897.34
2022-08-28T05:51:06.524Z,100892.34
2022-08-28T05:53:36.966Z,100884.94
2022-08-28T05:56:04.033Z,100887.84
2022-08-28T05:58:34.459Z,100889.88
2022-08-28T06:01:14.227Z,100893.94
2022-08-28T06:03:41.093Z,100894.13
2022-08-28T06:06:07.856Z,100905.78
2022-08-28T06:08:34.242Z,100904.53
2022-08-28T06:11:03.914Z,100902.69
2022-08-28T06:13:30.559Z,100911.34
2022-08-28T06:15:58.484Z,100902.94
2022-08-28T06:18:24.838Z,100917.13
2022-08-28T06:20:53.557Z,100915.75
2022-08-28T06:23:23.981Z,100909.41
2022-08-28T06:25:51.051Z,100910.19
2022-08-28T06:31:08.939Z,100915.19
2022-08-28T06:33:31.133Z,100923.69
2022-08-28T06:35:57.377Z,100932.13
2022-08-28T06:38:24.583Z,100936.66
2022-08-28T06:40:51.707Z,100940.09
2022-08-28T06:43:18.347Z,100941.66
2022-08-28T06:45:45.213Z,100943.59
2022-08-28T06:48:12.809Z,100946.16
2022-08-28T06:50:39.638Z,100941.88
2022-08-28T06:53:07.054Z,100939.75
2022-08-28T06:55:33.300Z,100944.78
2022-08-28T06:57:59.546Z,100943.94
2022-08-28T07:00:25.790Z,100948.25
2022-08-28T07:02:52.137Z,100940.28
2022-08-28T07:05:18.417Z,100936.50
2022-08-28T07:07:44.690Z,100936.75
2022-08-28T07:10:10.956Z,100940.84
2022-08-28T07:12:37.206Z,100936.13
2022-08-28T07:15:03.797Z,100935.56
2022-08-28T07:17:30.204Z,100941.13
2022-08-28T07:19:56.469Z,100938.16
2022-08-28T07:22:22.730Z,100931.53
2022-08-28T07:24:48.965Z,100936.38
2022-08-28T07:27:18.869Z,100943.81
2022-08-28T07:29:45.419Z,100943.88
2022-08-28T07:32:11.679Z,100950.00
2022-08-28T07:34:38.011Z,100964.47
2022-08-28T07:37:06.126Z,100963.34
2022-08-28T07:39:32.371Z,100959.19
2022-08-28T07:41:58.622Z,100968.91
2022-08-28T07:44:24.873Z,100976.44
2022-08-28T07:46:54.800Z,100983.06
2022-08-28T07:49:21.035Z,100989.34
2022-08-28T07:51:47.318Z,100983.38
2022-08-28T07:54:15.575Z,100995.72
2022-08-28T07:56:44.562Z,100993.34
2022-08-28T07:59:10.830Z,100993.06
2022-08-28T08:01:38.005Z,101000.91
2022-08-28T08:04:04.525Z,100998.75
2022-08-28T08:06:33.804Z,101009.81
2022-08-28T08:09:00.766Z,101002.06
2022-08-28T08:11:27.059Z,101006.00
2022-08-28T08:13:58.906Z,101015.00
2022-08-28T08:16:25.473Z,101014.31
2022-08-28T08:18:51.842Z,101023.28
2022-08-28T08:21:18.875Z,101022.22
2022-08-28T08:23:45.135Z,101033.94
2022-08-28T08:26:12.394Z,101024.72
2022-08-28T08:28:38.697Z,101045.78
2022-08-28T08:31:15.527Z,101035.41
2022-08-28T08:33:51.098Z,101037.91
2022-08-28T08:36:18.066Z,101031.31
2022-08-28T08:38:44.392Z,101021.66
2022-08-28T08:41:14.418Z,101017.22
2022-08-28T08:43:48.485Z,100922.03
2022-08-28T08:46:14.774Z,100870.44
2022-08-28T08:48:41.083Z,100829.59
2022-08-28T08:51:11.307Z,100845.56
2022-08-28T08:53:45.266Z,100886.56
2022-08-28T08:56:14.705Z,100922.13
2022-08-28T08:58:42.039Z,100964.25
2022-08-28T09:01:15.611Z,100974.72
2022-08-28T09:03:54.254Z,100964.19
2022-08-28T09:06:26.099Z,100999.75
2022-08-28T09:08:54.018Z,100965.25
2022-08-28T09:11:38.253Z,100895.44
2022-08-28T09:14:19.852Z,100855.13
2022-08-28T09:16:46.932Z,100791.03
2022-08-28T09:19:15.094Z,100772.06
2022-08-28T09:21:42.236Z,100832.63
2022-08-28T09:24:17.082Z,100714.75
2022-08-28T09:26:51.069Z,100695.97
2022-08-28T09:29:18.578Z,100767.03
2022-08-28T09:31:44.816Z,100830.72
2022-08-28T09:34:18.480Z,100856.59
2022-08-28T09:36:44.733Z,100654.88
2022-08-28T09:39:16.347Z,100689.22
2022-08-28T09:41:52.830Z,100599.94
2022-08-28T09:44:19.075Z,100576.00
2022-08-28T09:46:49.081Z,100485.75
2022-08-28T09:49:15.348Z,100488.84
2022-08-28T09:51:41.589Z,100658.09
2022-08-28T09:54:11.150Z,100724.63
2022-08-28T09:56:37.537Z,100689.09
2022-08-28T09:59:05.992Z,100670.31
2022-08-28T10:01:39.006Z,100739.53
2022-08-28T10:04:10.153Z,100786.66
2022-08-28T10:06:36.518Z,100828.69
2022-08-28T10:09:08.748Z,100890.31
2022-08-28T10:11:53.837Z,100727.31
2022-08-28T10:14:31.148Z,100776.97
2022-08-28T10:17:00.405Z,100773.72
2022-08-28T10:19:26.669Z,100734.13
2022-08-28T10:21:58.794Z,100480.56
2022-08-28T10:24:34.996Z,100463.00
2022-08-28T10:27:04.216Z,100586.41
2022-08-28T10:29:49.390Z,100440.97
2022-08-28T10:32:27.559Z,100421.19
2022-08-28T10:35:08.857Z,100598.25
2022-08-28T10:37:54.090Z,100675.47
2022-08-28T10:40:24.764Z,100696.56
2022-08-28T10:42:53.705Z,100707.13
2022-08-28T10:45:21.013Z,100831.22
2022-08-28T10:47:48.998Z,100658.53
2022-08-28T10:50:16.312Z,100740.63
2022-08-28T10:52:44.826Z,100733.72
2022-08-28T10:55:18.130Z,100772.31
2022-08-28T10:57:47.026Z,100670.38
2022-08-28T11:00:14.556Z,100573.56
2022-08-28T11:02:41.771Z,100412.50
2022-08-28T11:05:08.050Z,100433.41
2022-08-28T11:07:38.363Z,100460.66
2022-08-28T11:10:21.690Z,100501.44
2022-08-28T11:12:48.094Z,100559.28
2022-08-28T11:15:36.703Z,100489.06
2022-08-28T11:18:20.953Z,100506.63
2022-08-28T11:20:56.422Z,100336.22
2022-08-28T11:23:23.989Z,100392.78
2022-08-28T11:25:51.246Z,100337.44
2022-08-28T11:28:17.529Z,100358.31
2022-08-28T11:30:44.600Z,100547.97
2022-08-28T11:33:33.736Z,100643.84
2022-08-28T11:35:59.998Z,100680.59
2022-08-28T11:38:41.589Z,100623.97
2022-08-28T11:41:12.230Z,100558.41
2022-08-28T11:43:39.097Z,100544.81
2022-08-28T11:46:06.210Z,100536.47
2022-08-28T11:48:35.444Z,100467.25
2022-08-28T11:51:02.439Z,100555.44
2022-08-28T11:53:49.983Z,100714.88
2022-08-28T11:56:21.695Z,100642.88
2022-08-28T11:59:10.055Z,100519.88
2022-08-28T12:01:36.682Z,100524.13
2022-08-28T12:04:07.949Z,100474.97
2022-08-28T12:06:55.140Z,100322.03
2022-08-28T12:09:39.759Z,100433.56
2022-08-28T12:12:10.329Z,100382.66
2022-08-28T12:14:39.540Z,100333.69
2022-08-28T12:17:21.043Z,100470.09
2022-08-28T12:19:55.389Z,100247.34
2022-08-28T12:22:23.583Z,100491.13
2022-08-28T12:24:50.968Z,100411.06
2022-08-28T12:27:17.220Z,100424.03
2022-08-28T12:29:45.998Z,100395.22
2022-08-28T12:32:15.235Z,100308.06
2022-08-28T12:34:41.443Z,100468.56
2022-08-28T12:37:19.535Z,100447.34
2022-08-28T12:39:45.782Z,100462.69
2022-08-28T12:42:14.514Z,100397.75
2022-08-28T12:44:40.770Z,100331.88
2022-08-28T12:47:07.001Z,100448.91
2022-08-28T12:49:34.163Z,100329.00
2022-08-28T12:52:26.497Z,100358.84
2022-08-28T12:54:53.040Z,100452.88
2022-08-28T12:57:22.916Z,100465.97
2022-08-28T12:59:50.070Z,100415.63
2022-08-28T13:02:20.617Z,100332.41
2022-08-28T13:04:52.303Z,100303.50
2022-08-28T13:07:20.505Z,100298.22
2022-08-28T13:09:47.603Z,100452.03
2022-08-28T13:12:20.749Z,100462.72
2022-08-28T13:14:47.080Z,100474.63
2022-08-28T13:17:13.737Z,100352.66
2022-08-28T13:19:40.137Z,100384.34
2022-08-28T13:22:07.405Z,100396.66
2022-08-28T13:24:36.691Z,100402.88
2022-08-28T13:27:04.603Z,100282.34
2022-08-28T13:29:30.849Z,100238.59
2022-08-28T13:31:57.730Z,100411.63
2022-08-28T13:34:24.367Z,100208.63
2022-08-28T13:36:51.742Z,100278.59
2022-08-28T13:39:18.223Z,100405.22
2022-08-28T13:41:45.593Z,100374.13
2022-08-28T13:44:20.913Z,100433.00
2022-08-28T13:46:47.597Z,100470.78
2022-08-28T13:49:13.834Z,100447.31
2022-08-28T13:51:40.127Z,100368.38
2022-08-28T13:54:06.393Z,100366.34
2022-08-28T13:56:33.385Z,100388.44
2022-08-28T13:58:59.646Z,100216.22
2022-08-28T14:01:30.554Z,100297.31
2022-08-28T14:04:08.303Z,100264.50
2022-08-28T14:06:34.568Z,100347.88
2022-08-28T14:09:00.819Z,100362.63
2022-08-28T14:11:27.083Z,100270.47
2022-08-28T14:13:55.790Z,100225.09
2022-08-28T14:16:22.794Z,100078.06
2022-08-28T14:18:49.065Z,100190.69
2022-08-28T14:21:15.315Z,100176.91
2022-08-28T14:23:41.568Z,100379.16
2022-08-28T14:26:07.834Z,100469.16
2022-08-28T14:28:34.084Z,100453.84
2022-08-28T14:31:00.352Z,100497.81
2022-08-28T14:33:26.598Z,100567.03
2022-08-28T14:35:54.083Z,100298.44
2022-08-28T14:38:20.317Z,100221.94
2022-08-28T14:40:46.578Z,100209.22
2022-08-28T14:43:13.159Z,100154.69
2022-08-28T14:45:46.145Z,100126.13
2022-08-28T14:48:12.480Z,100175.44
2022-08-28T14:50:39.740Z,100269.31
2022-08-28T14:53:06.074Z,100183.88
2022-08-28T14:55:32.349Z,100198.03
2022-08-28T14:57:58.611Z,100347.81
2022-08-28T15:00:24.858Z,100267.53
2022-08-28T15:02:55.340Z,100298.31
2022-08-28T15:05:26.197Z,100330.97
2022-08-28T15:07:52.455Z,100325.22
2022-08-28T15:10:18.690Z,100189.31
2022-08-28T15:12:44.951Z,100156.16
2022-08-28T15:15:13.018Z,100126.03
2022-08-28T15:17:39.274Z,100143.66
2022-08-28T15:20:05.677Z,100061.78
2022-08-28T15:22:31.925Z,100071.78
2022-08-28T15:24:58.166Z,100150.84
2022-08-28T15:27:24.439Z,100192.19
2022-08-28T15:29:50.677Z,100215.22
2022-08-28T15:32:16.921Z,100242.22
2022-08-28T15:34:43.167Z,100332.28
2022-08-28T15:37:11.126Z,100305.59
2022-08-28T15:39:39.739Z,100238.34
2022-08-28T15:42:06.474Z,100332.41
2022-08-28T15:44:32.718Z,100236.94
2022-08-28T15:47:00.017Z,100190.41
2022-08-28T15:49:26.558Z,100321.66
2022-08-28T15:51:52.815Z,100300.28
2022-08-28T15:54:19.410Z,100216.09
2022-08-28T15:56:45.668Z,100208.44
2022-08-28T15:59:14.242Z,100029.66
2022-08-28T16:01:40.606Z,99999.78
2022-08-28T16:04:06.940Z,100228.00
2022-08-28T16:06:33.443Z,100194.25
2022-08-28T16:08:59.710Z,100260.75
2022-08-28T16:11:25.967Z,100359.59
2022-08-28T16:13:52.217Z,100403.28
2022-08-28T16:16:18.528Z,100320.78
2022-08-28T16:18:44.859Z,100166.47
2022-08-28T16:21:11.166Z,100159.59
2022-08-28T16:23:37.446Z,100188.66
2022-08-28T16:26:03.730Z,100362.38
2022-08-28T16:28:31.247Z,100419.75
2022-08-28T16:30:57.481Z,100473.31
2022-08-28T16:33:23.745Z,100669.84
2022-08-28T16:35:54.812Z,100630.19
2022-08-28T16:38:22.567Z,100598.78
2022-08-28T16:40:48.953Z,100637.19
2022-08-28T16:43:15.218Z,100643.47
2022-08-28T16:45:42.263Z,100665.19
2022-08-28T16:48:08.516Z,100698.63
2022-08-28T16:50:34.760Z,100712.03
2022-08-28T16:53:06.222Z,100772.44
2022-08-28T16:55:33.209Z,100823.75
2022-08-28T16:57:59.477Z,100857.16
2022-08-28T17:00:25.717Z,100873.81
2022-08-28T17:02:51.969Z,100886.63
2022-08-28T17:05:18.657Z,100918.63
2022-08-28T17:07:45.053Z,100831.06
2022-08-28T17:10:12.267Z,100777.34
2022-08-28T17:12:38.825Z,100813.06
2022-08-28T17:15:05.718Z,100777.31
2022-08-28T17:17:32.007Z,100815.69
2022-08-28T17:19:58.259Z,100847.50
2022-08-28T17:22:27.119Z,100830.47
2022-08-28T17:24:53.756Z,100819.72
2022-08-28T17:27:22.420Z,100853.84
2022-08-28T17:29:49.154Z,100877.66
2022-08-28T17:32:15.413Z,100902.13
2022-08-28T17:34:41.696Z,100964.56
2022-08-28T17:37:07.939Z,100977.75
2022-08-28T17:39:34.203Z,101005.38
2022-08-28T17:42:00.455Z,101028.19
2022-08-28T17:44:26.723Z,101048.16
2022-08-28T17:46:53.022Z,101090.97
2022-08-28T17:49:19.299Z,101137.16
2022-08-28T17:51:45.537Z,101176.81
2022-08-28T17:54:12.501Z,101180.25
2022-08-28T17:56:38.754Z,101179.72
2022-08-28T17:59:05.020Z,101215.53
2022-08-28T18:01:31.329Z,101241.03
2022-08-28T18:03:57.637Z,101287.22
2022-08-28T18:06:23.870Z,101308.47
2022-08-28T18:08:50.128Z,101288.66
2022-08-28T18:11:16.365Z,101291.09
2022-08-28T18:13:42.622Z,101280.81
2022-08-28T18:16:08.971Z,101275.78
2022-08-28T18:18:36.435Z,101266.53
2022-08-28T18:21:02.949Z,101264.16
2022-08-28T18:23:29.205Z,101255.66
2022-08-28T18:25:55.456Z,101253.53
2022-08-28T18:28:22.507Z,101248.22
2022-08-28T18:30:49.138Z,101260.97
2022-08-28T18:33:15.775Z,101253.78
2022-08-28T18:35:45.106Z,101244.00
2022-08-28T18:38:14.097Z,101230.75
2022-08-28T18:40:40.839Z,101214.88
2022-08-28T18:43:07.152Z,101215.25
2022-08-28T18:45:33.410Z,101225.91
2022-08-28T18:47:59.838Z,101227.25
2022-08-28T18:50:26.387Z,101234.50
2022-08-28T18:52:52.655Z,101239.88
2022-08-28T18:55:19.975Z,101251.25
2022-08-28T18:57:46.238Z,101253.66
2022-08-28T19:00:13.817Z,101278.84
2022-08-28T19:02:41.767Z,101292.84
2022-08-28T19:05:08.515Z,101305.88
2022-08-28T19:07:34.761Z,101304.03
2022-08-28T19:10:01.057Z,101310.06
2022-08-28T19:12:27.304Z,101313.03
2022-08-28T19:14:54.302Z,101305.38
2022-08-28T19:17:21.247Z,101286.56
2022-08-28T19:19:47.629Z,101261.38
2022-08-28T19:22:13.869Z,101250.00
2022-08-28T19:24:40.124Z,101248.22
2022-08-28T19:27:06.365Z,101235.59
2022-08-28T19:29:32.620Z,101239.41
2022-08-28T19:31:58.861Z,101242.63
2022-08-28T19:34:25.117Z,101238.41
2022-08-28T19:36:51.371Z,101236.06
2022-08-28T19:39:17.625Z,101225.72
2022-08-28T19:41:43.887Z,101229.44
2022-08-28T19:44:10.200Z,101218.84
2022-08-28T19:46:37.386Z,101208.84
2022-08-28T19:49:03.653Z,101208.59
2022-08-28T19:51:30.082Z,101190.91
2022-08-28T19:53:58.948Z,101163.19
2022-08-28T19:56:28.537Z,101156.66
2022-08-28T19:58:55.617Z,101164.47
2022-08-28T20:01:21.973Z,101158.97
2022-08-28T20:03:48.247Z,101168.56
2022-08-28T20:06:14.497Z,101166.53
2022-08-28T20:08:40.746Z,101162.88
2022-08-28T20:11:07.036Z,101167.56
2022-08-28T20:13:33.281Z,101208.78
2022-08-28T20:16:02.624Z,101222.59
2022-08-28T20:18:28.890Z,101245.63
2022-08-28T20:20:55.147Z,101246.72
2022-08-28T20:23:21.851Z,101251.00
2022-08-28T20:25:48.387Z,101254.69
2022-08-28T20:28:15.269Z,101238.34
2022-08-28T20:30:41.665Z,101239.75
2022-08-28T20:33:07.940Z,101265.97
2022-08-28T20:35:34.350Z,101275.78
2022-08-28T20:38:00.587Z,101275.25
2022-08-28T20:40:26.902Z,101278.47
2022-08-28T20:42:53.180Z,101287.44
2022-08-28T20:45:19.467Z,101286.44
2022-08-28T20:47:45.807Z,101286.19
2022-08-28T20:50:12.171Z,101284.84
2022-08-28T20:52:38.412Z,101288.59
2022-08-28T20:55:05.287Z,101289.38
2022-08-28T20:57:31.533Z,101284.88
2022-08-28T21:00:00.224Z,101284.94
2022-08-28T21:02:29.671Z,101283.31
2022-08-28T21:04:55.981Z,101267.50
2022-08-28T21:07:22.885Z,101273.88
2022-08-28T21:10:06.860Z,101274.16
2022-08-28T21:12:34.683Z,101271.28
2022-08-28T21:15:01.002Z,101282.13
2022-08-28T21:17:30.120Z,101298.19
2022-08-28T21:19:57.793Z,101293.72
2022-08-28T21:22:24.060Z,101298.19
2022-08-28T21:24:50.557Z,101283.16
2022-08-28T21:27:18.686Z,101269.97
2022-08-28T21:29:45.378Z,101278.19
2022-08-28T21:32:11.634Z,101287.94
2022-08-28T21:34:37.889Z,101286.09
2022-08-28T21:37:04.125Z,101278.19
2022-08-28T21:39:30.396Z,101289.84
2022-08-28T21:41:56.639Z,101291.16
2022-08-28T21:44:22.903Z,101307.50
2022-08-28T21:46:49.153Z,101306.44
2022-08-28T21:49:15.471Z,101304.34
2022-08-28T21:51:41.705Z,101297.47
2022-08-28T21:54:07.955Z,101291.69
2022-08-28T21:56:34.299Z,101289.28
2022-08-28T21:59:00.933Z,101294.28
2022-08-28T22:01:27.370Z,101311.16
2022-08-28T22:03:54.228Z,101295.06
2022-08-28T22:06:20.893Z,101286.06
2022-08-28T22:08:47.200Z,101272.38
2022-08-28T22:11:13.803Z,101283.22
2022-08-28T22:13:41.983Z,101271.34
2022-08-28T22:16:09.558Z,101281.13
2022-08-28T22:18:35.825Z,101285.28
2022-08-28T22:21:02.092Z,101268.41
2022-08-28T22:23:28.927Z,101268.47
2022-08-28T22:25:55.173Z,101277.72
2022-08-28T22:28:21.417Z,101294.00
2022-08-28T22:30:47.673Z,101259.72
2022-08-28T22:33:14.147Z,101278.72
2022-08-28T22:35:40.717Z,101274.78
2022-08-28T22:38:07.108Z,101279.31
2022-08-28T22:40:33.421Z,101283.00
2022-08-28T22:42:59.710Z,101283.00
2022-08-28T22:45:25.971Z,101276.94
2022-08-28T22:47:52.429Z,101285.13
2022-08-28T22:50:18.689Z,101284.59
2022-08-28T22:52:48.559Z,101283.56
2022-08-28T22:55:15.213Z,101285.41
2022-08-28T22:57:41.460Z,101282.00
2022-08-28T23:00:08.371Z,101286.75
2022-08-28T23:02:34.671Z,101294.13
2022-08-28T23:05:00.964Z,101284.91
2022-08-28T23:07:27.236Z,101274.34
2022-08-28T23:09:53.492Z,101268.56
2022-08-28T23:12:19.745Z,101263.00
2022-08-28T23:14:48.543Z,101264.06
2022-08-28T23:17:15.182Z,101260.09
2022-08-28T23:19:43.183Z,101259.03
2022-08-28T23:22:12.648Z,101258.22
2022-08-28T23:24:38.906Z,101238.69
2022-08-28T23:27:25.503Z,101217.34
2022-08-28T23:29:53.215Z,101203.88
2022-08-28T23:32:19.793Z,101195.19
2022-08-28T23:34:46.215Z,101207.09
2022-08-28T23:37:12.461Z,101228.72
2022-08-28T23:39:38.720Z,101235.81
2022-08-28T23:42:04.966Z,101245.84
2022-08-28T23:44:31.355Z,101250.84
2022-08-28T23:46:58.533Z,101268.78
2022-08-28T23:49:26.958Z,101271.44
2022-08-28T23:51:53.414Z,101275.13
2022-08-28T23:54:19.666Z,101282.28
2022-08-28T23:56:46.221Z,101278.81
2022-08-28T23:59:12.551Z,101261.13
